Time;durP1;ratioP1;P1;durP2;ratioP2;P2;SDS_P1;SDS_P2;PMS_P1;PMS_P2;Temp;Humidity;BMP_temperature;BMP_pressure;BME280_temperature;BME280_humidity;BME280_pressure;Samples;Min_cycle;Max_cycle;Signal;HPM_P1;HPM_P2
2022/09/02 00:00:48;;;;;;;2.78;1.95;;;20.20;46.20;;;;;;5076292;28;20025;-71
2022/09/02 00:03:15;;;;;;;2.70;1.67;;;20.20;46.60;;;;;;5076275;28;20076;-71
2022/09/02 00:05:41;;;;;;;1.92;1.40;;;20.10;46.80;;;;;;5076121;28;20047;-71
2022/09/02 00:08:08;;;;;;;4.53;1.80;;;20.10;46.70;;;;;;5076052;28;20033;-71
2022/09/02 00:10:37;;;;;;;2.25;1.60;;;20.10;47.20;;;;;;5076029;28;20092;-71
2022/09/02 00:13:04;;;;;;;2.90;1.48;;;20.10;47.50;;;;;;5076026;28;20021;-71
2022/09/02 00:15:30;;;;;;;2.92;1.38;;;20.10;47.60;;;;;;5075961;28;20021;-71
2022/09/02 00:17:56;;;;;;;3.50;1.50;;;20.00;47.20;;;;;;5075907;28;20033;-71
2022/09/02 00:20:22;;;;;;;2.65;1.50;;;20.00;47.10;;;;;;5075762;28;20037;-71
2022/09/02 00:22:48;;;;;;;1.88;1.52;;;19.90;46.60;;;;;;5075780;28;20025;-71
2022/09/02 00:25:14;;;;;;;3.38;1.55;;;19.90;46.40;;;;;;5075767;28;20031;-71
2022/09/02 00:27:39;;;;;;;9.55;1.98;;;19.90;46.50;;;;;;5075703;28;20063;-71
2022/09/02 00:30:06;;;;;;;3.50;1.63;;;19.90;47.10;;;;;;5075565;28;20029;-71
2022/09/02 00:32:32;;;;;;;1.70;1.52;;;19.80;47.20;;;;;;5075633;28;20056;-71
2022/09/02 00:34:57;;;;;;;5.75;1.77;;;19.70;47.30;;;;;;5075551;28;20032;-71
2022/09/02 00:37:27;;;;;;;4.35;1.80;;;19.70;47.90;;;;;;5075528;28;20408;-71
2022/09/02 00:39:53;;;;;;;2.00;1.80;;;19.70;47.70;;;;;;5075403;28;20047;-71
2022/09/02 00:42:20;;;;;;;2.13;1.60;;;19.70;47.60;;;;;;5075434;28;20025;-71
2022/09/02 00:44:47;;;;;;;2.20;1.85;;;19.70;48.00;;;;;;5075222;28;20031;-71
2022/09/02 00:47:14;;;;;;;2.72;1.85;;;19.70;49.00;;;;;;5075312;28;20107;-71
2022/09/02 00:49:44;;;;;;;7.50;2.00;;;19.60;47.40;;;;;;5075298;28;20025;-71
2022/09/02 00:52:24;;;;;;;5.85;1.73;;;19.50;47.50;;;;;;5075222;28;20112;-71
2022/09/02 00:54:58;;;;;;;4.75;1.90;;;19.50;48.30;;;;;;5075345;28;20052;-70
2022/09/02 00:57:28;;;;;;;1.92;1.60;;;19.40;48.80;;;;;;5075364;28;20077;-71
2022/09/02 01:00:05;;;;;;;2.47;1.67;;;19.30;48.30;;;;;;5074943;28;20045;-71
2022/09/02 01:02:31;;;;;;;1.58;1.48;;;19.30;48.10;;;;;;5075086;28;20081;-71
2022/09/02 01:05:00;;;;;;;2.55;1.80;;;19.20;48.80;;;;;;5074969;28;20025;-71
2022/09/02 01:07:28;;;;;;;2.70;1.88;;;19.10;49.00;;;;;;5074922;28;20036;-71
2022/09/02 01:09:55;;;;;;;3.42;1.63;;;19.10;49.20;;;;;;5074910;28;20027;-71
2022/09/02 01:12:23;;;;;;;4.53;1.75;;;19.00;49.60;;;;;;5074882;28;20020;-71
2022/09/02 01:14:48;;;;;;;4.93;1.70;;;18.90;49.90;;;;;;5074828;28;20491;-71
2022/09/02 01:17:19;;;;;;;5.05;2.03;;;18.90;49.20;;;;;;5074906;28;20040;-71
2022/09/02 01:19:48;;;;;;;2.97;1.58;;;18.80;50.20;;;;;;5074697;28;20022;-71
2022/09/02 01:22:17;;;;;;;2.50;1.88;;;18.80;49.70;;;;;;5074838;28;20009;-71
2022/09/02 01:24:43;;;;;;;2.13;1.67;;;18.80;50.10;;;;;;5074613;28;20023;-71
2022/09/02 01:27:12;;;;;;;3.03;1.90;;;18.70;50.10;;;;;;5074584;28;20048;-71
2022/09/02 01:29:38;;;;;;;3.67;1.98;;;18.60;50.50;;;;;;5074479;28;20021;-71
2022/09/02 01:32:04;;;;;;;3.17;1.85;;;18.60;51.20;;;;;;5074487;28;20033;-71
2022/09/02 01:34:29;;;;;;;6.15;1.77;;;18.50;50.60;;;;;;5074420;28;20032;-71
2022/09/02 01:36:55;;;;;;;4.60;2.28;;;18.50;50.70;;;;;;5074394;28;20033;-71
2022/09/02 01:39:20;;;;;;;2.00;1.77;;;18.40;51.10;;;;;;5074266;28;20025;-71
2022/09/02 01:41:46;;;;;;;2.63;1.70;;;18.40;50.80;;;;;;5074295;28;20476;-71
2022/09/02 01:44:13;;;;;;;3.67;1.70;;;18.50;50.90;;;;;;5074238;28;20055;-71
2022/09/02 01:46:38;;;;;;;1.70;1.50;;;18.40;51.10;;;;;;5074199;28;20021;-71
2022/09/02 01:49:04;;;;;;;2.05;1.55;;;18.30;51.30;;;;;;5074137;28;20021;-71
2022/09/02 01:51:30;;;;;;;3.03;1.88;;;18.30;51.50;;;;;;5073154;28;20032;-71
2022/09/02 01:53:56;;;;;;;6.30;2.30;;;18.30;51.20;;;;;;5074070;28;20030;-71
2022/09/02 01:56:22;;;;;;;3.63;1.98;;;18.20;51.40;;;;;;5073447;28;20056;-71
2022/09/02 01:58:48;;;;;;;2.88;2.00;;;18.30;51.10;;;;;;5073708;28;20037;-71
2022/09/02 02:01:14;;;;;;;2.53;1.70;;;18.30;51.30;;;;;;5073826;28;20060;-71
2022/09/02 02:03:40;;;;;;;2.58;1.85;;;18.30;51.80;;;;;;5073894;28;20025;-71
2022/09/02 02:06:15;;;;;;;5.38;1.98;;;18.20;51.00;;;;;;5073858;28;20473;-71
2022/09/02 02:08:41;;;;;;;3.13;1.88;;;18.20;51.50;;;;;;5073845;28;20099;-71
2022/09/02 02:11:08;;;;;;;2.22;1.80;;;18.20;51.70;;;;;;5073761;28;20029;-71
2022/09/02 02:13:34;;;;;;;3.58;1.95;;;18.20;51.90;;;;;;5073714;28;20025;-71
2022/09/02 02:16:00;;;;;;;4.22;1.80;;;18.30;51.40;;;;;;5073656;28;20055;-71
2022/09/02 02:18:28;;;;;;;2.50;1.60;;;18.30;51.70;;;;;;5073675;28;20101;-71
2022/09/02 02:20:54;;;;;;;2.92;1.65;;;18.40;50.10;;;;;;5073550;28;20021;-71
2022/09/02 02:23:21;;;;;;;2.50;1.85;;;18.30;50.20;;;;;;5073578;28;20025;-71
2022/09/02 02:25:46;;;;;;;2.83;1.75;;;18.20;50.70;;;;;;5073510;28;20021;-71
2022/09/02 02:28:13;;;;;;;2.47;1.70;;;18.10;50.60;;;;;;5073410;28;20043;-71
2022/09/02 02:30:39;;;;;;;3.20;1.83;;;18.10;50.70;;;;;;5073590;28;20079;-71
2022/09/02 02:33:04;;;;;;;2.30;1.90;;;18.00;51.40;;;;;;5073420;28;20017;-71
2022/09/02 02:35:30;;;;;;;3.25;1.65;;;17.90;51.70;;;;;;5073392;28;20162;-71
2022/09/02 02:37:56;;;;;;;1.67;1.58;;;17.90;51.90;;;;;;5073343;28;20029;-71
2022/09/02 02:40:23;;;;;;;2.72;1.73;;;17.90;52.20;;;;;;5073405;28;20104;-71
2022/09/02 02:42:52;;;;;;;4.60;1.90;;;17.90;52.40;;;;;;5073303;28;20024;-71
2022/09/02 02:45:18;;;;;;;2.05;1.50;;;17.80;51.90;;;;;;5073274;28;20025;-71
2022/09/02 02:47:45;;;;;;;2.42;1.58;;;17.80;51.90;;;;;;5073203;28;20028;-71
2022/09/02 02:50:14;;;;;;;2.95;1.80;;;17.80;52.00;;;;;;5073337;28;20029;-71
2022/09/02 02:52:41;;;;;;;3.38;1.98;;;17.80;51.80;;;;;;5073168;28;20025;-71
2022/09/02 02:55:09;;;;;;;3.85;2.20;;;17.70;51.00;;;;;;5073131;28;20044;-71
2022/09/02 02:57:37;;;;;;;3.60;1.50;;;17.70;51.40;;;;;;5073175;28;20025;-71
2022/09/02 03:00:11;;;;;;;1.88;1.60;;;17.70;51.90;;;;;;5072851;28;20108;-71
2022/09/02 03:02:37;;;;;;;2.38;1.52;;;17.60;52.60;;;;;;5073142;28;20017;-71
2022/09/02 03:05:05;;;;;;;1.98;1.70;;;17.60;52.70;;;;;;5073092;28;20039;-71
2022/09/02 03:07:32;;;;;;;2.03;1.67;;;17.60;53.40;;;;;;5073017;28;20040;-71
2022/09/02 03:09:57;;;;;;;4.85;1.85;;;17.50;52.60;;;;;;5076579;28;20051;-71
2022/09/02 03:12:24;;;;;;;6.78;1.80;;;17.60;52.60;;;;;;5077143;28;20037;-71
2022/09/02 03:14:50;;;;;;;2.10;1.70;;;17.50;52.30;;;;;;5077089;28;20017;-71
2022/09/02 03:17:16;;;;;;;3.72;1.80;;;17.60;52.50;;;;;;5077189;28;20048;-71
2022/09/02 03:19:42;;;;;;;4.72;1.80;;;17.60;52.20;;;;;;5076958;28;20029;-71
2022/09/02 03:22:09;;;;;;;3.22;1.80;;;17.60;52.70;;;;;;5076944;28;20029;-71
2022/09/02 03:24:36;;;;;;;3.17;1.60;;;17.60;52.50;;;;;;5076913;28;20036;-71
2022/09/02 03:27:03;;;;;;;2.00;1.50;;;17.60;52.60;;;;;;5076840;28;20055;-71
2022/09/02 03:29:28;;;;;;;3.85;1.77;;;17.50;52.10;;;;;;5076723;28;20052;-71
2022/09/02 03:31:54;;;;;;;2.67;1.70;;;17.50;52.50;;;;;;5076891;28;20055;-71
2022/09/02 03:34:20;;;;;;;3.15;1.88;;;17.50;52.80;;;;;;5076719;28;20039;-71
2022/09/02 03:36:46;;;;;;;3.50;1.98;;;17.60;52.80;;;;;;5076727;28;20040;-71
2022/09/02 03:39:12;;;;;;;3.33;2.08;;;17.60;52.80;;;;;;5076537;28;20032;-71
2022/09/02 03:41:40;;;;;;;2.08;1.60;;;17.60;53.40;;;;;;5076575;28;20029;-71
2022/09/02 03:44:07;;;;;;;3.45;1.75;;;17.70;52.20;;;;;;5076557;28;20017;-71
2022/09/02 03:46:34;;;;;;;2.70;1.70;;;17.70;52.10;;;;;;5076494;28;20032;-71
2022/09/02 03:49:00;;;;;;;2.97;1.90;;;17.60;52.20;;;;;;5076463;28;20020;-71
2022/09/02 03:51:26;;;;;;;2.75;2.00;;;17.70;52.70;;;;;;5076401;28;20049;-71
2022/09/02 03:53:52;;;;;;;2.97;2.30;;;17.70;52.60;;;;;;5076475;28;20077;-71
2022/09/02 03:56:19;;;;;;;2.20;1.80;;;17.60;52.10;;;;;;5076265;28;20036;-71
2022/09/02 03:58:47;;;;;;;2.38;2.00;;;17.50;52.00;;;;;;5076066;28;20044;-71
2022/09/02 04:01:19;;;;;;;2.60;2.08;;;17.50;52.00;;;;;;5076135;28;20484;-71
2022/09/02 04:03:45;;;;;;;3.67;2.13;;;17.40;52.10;;;;;;5076284;28;20044;-71
2022/09/02 04:06:14;;;;;;;1.88;1.60;;;17.40;52.10;;;;;;5076166;28;20089;-71
2022/09/02 04:08:40;;;;;;;3.53;1.95;;;17.50;52.40;;;;;;5076109;28;20519;-71
2022/09/02 04:11:11;;;;;;;2.65;2.00;;;17.50;52.20;;;;;;5076030;28;20093;-71
2022/09/02 04:13:37;;;;;;;2.35;1.80;;;17.40;51.90;;;;;;5076008;28;20029;-71
2022/09/02 04:16:12;;;;;;;3.67;1.80;;;17.40;52.50;;;;;;5075945;28;20047;-71
2022/09/02 04:18:38;;;;;;;2.92;1.75;;;17.50;52.40;;;;;;5075742;28;20032;-71
2022/09/02 04:21:04;;;;;;;2.58;1.58;;;17.40;52.20;;;;;;5075397;28;20029;-71
2022/09/02 04:23:31;;;;;;;5.70;2.13;;;17.50;52.40;;;;;;5075802;28;20025;-71
2022/09/02 04:25:57;;;;;;;6.65;1.98;;;17.40;52.80;;;;;;5075754;28;20025;-71
2022/09/02 04:28:23;;;;;;;2.38;1.90;;;17.50;52.80;;;;;;5075645;28;20029;-71
2022/09/02 04:30:49;;;;;;;4.70;1.80;;;17.50;52.50;;;;;;5075677;28;20051;-71
2022/09/02 04:33:15;;;;;;;2.65;2.00;;;17.50;52.40;;;;;;5075638;28;20041;-71
2022/09/02 04:35:43;;;;;;;2.13;1.90;;;17.50;52.70;;;;;;5075549;28;20061;-71
2022/09/02 04:38:10;;;;;;;2.97;1.90;;;17.50;52.90;;;;;;5075628;28;20032;-71
2022/09/02 04:40:41;;;;;;;3.85;1.70;;;17.50;52.60;;;;;;5075412;28;20025;-71
2022/09/02 04:43:07;;;;;;;4.22;2.08;;;17.60;53.10;;;;;;5075449;28;20033;-71
2022/09/02 04:45:33;;;;;;;3.95;1.90;;;17.60;52.90;;;;;;5075384;28;20078;-71
2022/09/02 04:47:58;;;;;;;4.82;1.77;;;17.50;52.50;;;;;;5075324;28;20037;-71
2022/09/02 04:50:24;;;;;;;5.10;1.90;;;17.50;52.70;;;;;;5075324;28;20048;-71
2022/09/02 04:52:49;;;;;;;6.78;1.75;;;17.50;52.90;;;;;;5075260;28;20539;-71
2022/09/02 04:55:15;;;;;;;4.85;2.00;;;17.50;52.70;;;;;;5075326;28;20036;-71
2022/09/02 04:57:42;;;;;;;3.90;1.77;;;17.60;52.70;;;;;;5075173;28;20036;-71
2022/09/02 05:00:08;;;;;;;5.85;2.03;;;17.50;52.70;;;;;;5074891;28;20045;-71
2022/09/02 05:02:34;;;;;;;2.08;1.70;;;17.40;53.10;;;;;;5075093;28;20021;-71
2022/09/02 05:05:00;;;;;;;5.35;2.05;;;17.40;53.20;;;;;;5075056;28;20019;-71
2022/09/02 05:07:25;;;;;;;5.07;1.67;;;17.50;53.00;;;;;;5074962;28;20422;-70
2022/09/02 05:09:58;;;;;;;6.72;1.88;;;17.50;53.20;;;;;;5074966;28;20049;-70
2022/09/02 05:12:26;;;;;;;3.28;1.92;;;17.50;53.30;;;;;;5074889;28;20032;-70
2022/09/02 05:14:54;;;;;;;5.40;1.70;;;17.60;53.50;;;;;;5074838;28;20053;-70
2022/09/02 05:17:20;;;;;;;10.23;2.00;;;17.60;53.40;;;;;;5074785;28;20088;-70
2022/09/02 05:19:46;;;;;;;6.65;1.80;;;17.60;53.20;;;;;;5074649;28;20030;-70
2022/09/02 05:22:11;;;;;;;5.20;1.80;;;17.60;53.30;;;;;;5074698;28;20025;-70
2022/09/02 05:24:37;;;;;;;10.13;1.95;;;17.60;53.60;;;;;;5074788;28;20028;-70
2022/09/02 05:27:03;;;;;;;3.90;2.10;;;17.60;53.00;;;;;;5074620;28;20017;-70
2022/09/02 05:29:29;;;;;;;4.97;1.92;;;17.50;53.00;;;;;;5074500;28;20128;-70
2022/09/02 05:31:54;;;;;;;5.97;2.25;;;17.50;53.30;;;;;;5073546;28;20032;-70
2022/09/02 05:34:21;;;;;;;6.05;1.83;;;17.50;53.60;;;;;;5074471;28;20035;-70
2022/09/02 05:36:46;;;;;;;6.95;2.10;;;17.60;53.70;;;;;;5074406;28;20029;-70
2022/09/02 05:39:12;;;;;;;4.03;1.83;;;17.60;53.60;;;;;;5074279;28;20084;-70
2022/09/02 05:41:38;;;;;;;6.32;2.10;;;17.70;53.50;;;;;;5074305;28;20025;-70
2022/09/02 05:44:07;;;;;;;8.98;2.42;;;17.70;53.70;;;;;;5074269;28;20089;-70
2022/09/02 05:46:34;;;;;;;3.70;2.17;;;17.70;53.50;;;;;;5074224;28;20037;-70
2022/09/02 05:49:06;;;;;;;3.65;1.95;;;17.70;53.60;;;;;;5074197;28;20024;-70
2022/09/02 05:52:02;;;;;;;3.85;2.03;;;17.80;53.10;;;;;;5074203;28;20115;-70
2022/09/02 05:54:31;;;;;;;3.75;1.90;;;17.80;52.90;;;;;;5069670;28;20036;-71
2022/09/02 05:57:03;;;;;;;6.45;2.22;;;17.80;52.90;;;;;;5073958;28;20451;-71
2022/09/02 05:59:30;;;;;;;3.55;1.98;;;17.90;53.00;;;;;;5073744;28;20106;-71
2022/09/02 06:01:57;;;;;;;9.45;2.20;;;17.90;53.00;;;;;;5073982;28;20021;-71
2022/09/02 06:04:23;;;;;;;3.75;1.77;;;17.80;53.10;;;;;;5073936;28;20108;-71
2022/09/02 06:06:49;;;;;;;5.45;2.22;;;17.80;53.10;;;;;;5072912;28;20043;-71
2022/09/02 06:09:17;;;;;;;3.67;1.77;;;17.80;53.20;;;;;;5073801;28;20029;-71
2022/09/02 06:11:48;;;;;;;3.47;2.03;;;17.80;53.30;;;;;;5073778;28;20039;-71
2022/09/02 06:14:16;;;;;;;3.10;2.15;;;17.80;53.30;;;;;;5073793;28;20051;-71
2022/09/02 06:16:42;;;;;;;7.65;2.17;;;17.90;53.40;;;;;;5073718;28;20084;-71
2022/09/02 06:19:08;;;;;;;5.53;1.95;;;17.90;53.30;;;;;;5073643;28;20021;-71
2022/09/02 06:21:36;;;;;;;2.95;1.83;;;18.00;53.20;;;;;;5073543;28;20056;-71
2022/09/02 06:24:05;;;;;;;3.28;1.90;;;18.00;53.00;;;;;;5073724;28;20021;-71
2022/09/02 06:26:30;;;;;;;5.80;2.10;;;18.00;53.00;;;;;;5073518;28;20021;-71
2022/09/02 06:28:56;;;;;;;5.35;1.90;;;18.00;52.90;;;;;;5073464;28;20025;-71
2022/09/02 06:31:22;;;;;;;3.88;2.03;;;18.00;52.80;;;;;;5073476;28;20028;-71
2022/09/02 06:33:51;;;;;;;5.00;2.20;;;18.00;52.70;;;;;;5073458;28;20021;-71
2022/09/02 06:36:18;;;;;;;5.50;1.90;;;18.00;52.90;;;;;;5073339;28;20475;-71
2022/09/02 06:38:46;;;;;;;9.38;2.25;;;18.10;52.70;;;;;;5073403;28;20021;-71
2022/09/02 06:41:18;;;;;;;4.50;1.88;;;18.10;52.80;;;;;;5073272;28;20025;-71
2022/09/02 06:43:44;;;;;;;5.13;2.00;;;18.10;52.90;;;;;;5073156;28;20024;-71
2022/09/02 06:46:21;;;;;;;3.15;2.03;;;18.20;52.80;;;;;;5073398;28;20021;-71
2022/09/02 06:48:48;;;;;;;4.30;1.60;;;18.20;53.10;;;;;;5073417;28;20051;-71
2022/09/02 06:51:36;;;;;;;3.35;2.08;;;18.20;53.20;;;;;;5073130;28;20043;-71
2022/09/02 06:54:03;;;;;;;4.80;2.00;;;18.30;52.90;;;;;;5069668;28;20067;-71
2022/09/02 06:56:28;;;;;;;4.85;1.95;;;18.30;53.00;;;;;;5073156;28;20032;-71
2022/09/02 06:58:55;;;;;;;4.57;2.03;;;18.30;52.80;;;;;;5073048;28;20105;-71
2022/09/02 07:01:27;;;;;;;4.75;1.90;;;18.30;53.00;;;;;;5072138;28;20036;-71
2022/09/02 07:06:41;;;;;;;4.40;1.70;;;18.40;52.90;;;;;;5073297;28;20036;-71
2022/09/02 07:09:09;;;;;;;5.15;1.85;;;18.40;53.20;;;;;;5072985;28;20021;-71
2022/09/02 07:11:36;;;;;;;4.28;2.05;;;18.50;53.30;;;;;;5071972;28;20059;-71
2022/09/02 07:14:03;;;;;;;4.45;1.70;;;18.50;53.10;;;;;;5072997;28;20025;-71
2022/09/02 07:16:32;;;;;;;4.85;1.80;;;18.60;52.90;;;;;;5073005;28;20029;-71
2022/09/02 07:19:00;;;;;;;5.40;2.30;;;18.70;52.40;;;;;;5072946;28;20029;-71
2022/09/02 07:21:27;;;;;;;2.90;1.60;;;18.80;53.00;;;;;;5073020;28;20013;-71
2022/09/02 07:23:54;;;;;;;5.32;2.67;;;18.80;51.80;;;;;;5072824;28;20036;-71
2022/09/02 07:26:19;;;;;;;4.35;1.90;;;18.90;52.20;;;;;;5072893;28;20426;-72
2022/09/02 07:28:45;;;;;;;4.60;1.95;;;18.90;52.10;;;;;;5072793;28;20086;-71
2022/09/02 07:31:14;;;;;;;4.03;2.05;;;19.00;52.00;;;;;;5072805;28;20028;-71
2022/09/02 07:33:40;;;;;;;4.20;1.85;;;19.00;51.70;;;;;;5072810;28;20085;-71
2022/09/02 07:36:09;;;;;;;2.88;1.80;;;19.00;52.00;;;;;;5072809;28;20033;-71
2022/09/02 07:38:35;;;;;;;5.80;2.00;;;19.10;52.40;;;;;;5072787;28;20066;-71
2022/09/02 07:41:01;;;;;;;2.78;1.48;;;19.10;52.00;;;;;;5072697;28;20029;-70
2022/09/02 07:43:29;;;;;;;2.70;1.45;;;19.10;51.60;;;;;;5072862;28;20203;-71
2022/09/02 07:45:56;;;;;;;5.43;1.67;;;19.20;51.30;;;;;;5071728;28;20036;-71
2022/09/02 07:48:23;;;;;;;5.53;1.70;;;19.30;51.40;;;;;;5072664;28;20045;-71
2022/09/02 07:50:48;;;;;;;2.95;1.83;;;19.30;50.50;;;;;;5072630;28;20025;-71
2022/09/02 07:53:15;;;;;;;2.65;1.73;;;19.40;51.40;;;;;;5072619;28;20032;-71
2022/09/02 07:55:41;;;;;;;4.55;2.00;;;19.40;51.20;;;;;;5075346;28;20025;-71
2022/09/02 07:58:09;;;;;;;6.47;1.73;;;19.50;51.40;;;;;;5076269;28;20114;-71
2022/09/02 08:00:35;;;;;;;5.47;1.90;;;19.60;51.00;;;;;;5076182;28;20392;-71
2022/09/02 08:03:02;;;;;;;7.97;2.15;;;19.80;50.90;;;;;;5076227;28;20017;-70
2022/09/02 08:05:32;;;;;;;7.43;2.25;;;19.90;50.80;;;;;;5076099;28;20049;-71
2022/09/02 08:07:59;;;;;;;9.93;2.10;;;19.90;50.90;;;;;;5076226;28;20384;-71
2022/09/02 08:10:28;;;;;;;7.72;2.00;;;20.00;50.90;;;;;;5076115;28;20029;-71
2022/09/02 08:12:54;;;;;;;3.47;1.90;;;20.10;51.00;;;;;;5076053;28;20083;-71
2022/09/02 08:15:21;;;;;;;5.28;2.00;;;20.20;50.80;;;;;;5076002;28;20051;-71
2022/09/02 08:17:47;;;;;;;6.25;2.17;;;20.20;50.90;;;;;;5075962;28;20463;-70
2022/09/02 08:20:15;;;;;;;3.70;1.88;;;20.30;50.90;;;;;;5075813;28;20021;-71
2022/09/02 08:22:41;;;;;;;5.00;2.15;;;20.40;51.10;;;;;;5075853;28;20024;-70
2022/09/02 08:25:07;;;;;;;4.57;2.10;;;20.50;50.20;;;;;;5075814;28;20025;-71
2022/09/02 08:27:33;;;;;;;4.88;1.90;;;20.60;49.90;;;;;;5075765;28;20025;-71
2022/09/02 08:30:00;;;;;;;6.85;2.20;;;20.70;48.60;;;;;;5075663;28;20033;-71
2022/09/02 08:32:26;;;;;;;5.28;2.00;;;20.70;49.00;;;;;;5075656;28;20104;-71
2022/09/02 08:34:52;;;;;;;8.63;2.30;;;20.80;49.60;;;;;;5075767;28;20029;-71
2022/09/02 08:37:17;;;;;;;6.82;1.95;;;20.90;49.40;;;;;;5075569;28;20044;-71
2022/09/02 08:39:47;;;;;;;6.35;2.40;;;21.00;48.50;;;;;;5075609;28;20029;-71
2022/09/02 08:42:32;;;;;;;6.20;2.42;;;21.10;47.90;;;;;;5075628;28;20036;-71
2022/09/02 08:45:22;;;;;;;3.90;2.10;;;21.10;48.10;;;;;;5075482;28;20024;-71
2022/09/02 08:47:57;;;;;;;3.42;2.05;;;21.20;48.30;;;;;;5075435;28;20024;-71
2022/09/02 08:50:23;;;;;;;7.90;2.70;;;21.20;47.60;;;;;;5075358;28;20032;-71
2022/09/02 08:53:15;;;;;;;7.10;2.20;;;21.30;47.50;;;;;;5075280;28;20459;-71
2022/09/02 08:56:01;;;;;;;5.20;2.45;;;21.40;47.70;;;;;;5075276;28;20024;-71
2022/09/02 08:58:31;;;;;;;6.40;2.20;;;21.60;48.00;;;;;;5075029;28;20036;-71
2022/09/02 09:01:04;;;;;;;5.57;2.30;;;21.60;47.20;;;;;;5075112;28;20055;-71
2022/09/02 09:03:54;;;;;;;4.80;2.40;;;21.70;46.80;;;;;;5075269;28;20182;-71
2022/09/02 09:06:48;;;;;;;6.68;2.70;;;21.70;46.20;;;;;;5063776;28;20029;-71
2022/09/02 09:09:16;;;;;;;5.18;3.00;;;21.80;46.80;;;;;;5075028;28;20021;-71
2022/09/02 09:12:04;;;;;;;6.45;2.78;;;21.80;46.50;;;;;;5075061;28;20032;-71
2022/09/02 09:14:39;;;;;;;4.43;2.83;;;21.90;46.70;;;;;;5075066;28;20047;-71
2022/09/02 09:17:27;;;;;;;7.63;2.40;;;21.90;46.40;;;;;;5074799;28;20067;-71
2022/09/02 09:19:59;;;;;;;4.03;2.08;;;22.00;45.90;;;;;;5074712;28;20559;-71
2022/09/02 09:22:32;;;;;;;5.27;2.10;;;22.10;45.80;;;;;;5074833;28;20021;-71
2022/09/02 09:24:57;;;;;;;5.35;2.20;;;22.10;46.40;;;;;;5074860;28;20033;-71
2022/09/02 09:27:24;;;;;;;6.85;2.65;;;22.30;45.10;;;;;;5074626;28;20357;-70
2022/09/02 09:29:51;;;;;;;6.22;2.35;;;22.30;44.80;;;;;;5074669;28;20029;-71
2022/09/02 09:32:33;;;;;;;6.75;2.50;;;22.30;45.20;;;;;;5074654;28;20036;-71
2022/09/02 09:35:13;;;;;;;6.32;2.30;;;22.40;45.10;;;;;;5074637;28;20017;-71
2022/09/02 09:37:50;;;;;;;5.18;2.17;;;22.50;45.20;;;;;;5074579;28;20119;-71
2022/09/02 09:40:22;;;;;;;4.55;2.50;;;22.60;45.20;;;;;;5074381;28;20040;-71
2022/09/02 09:42:52;;;;;;;4.80;2.30;;;22.60;44.80;;;;;;5074330;28;20028;-71
2022/09/02 09:45:27;;;;;;;8.65;2.35;;;22.60;44.70;;;;;;5074453;28;20025;-71
2022/09/02 09:48:15;;;;;;;6.50;2.60;;;22.70;44.30;;;;;;5074434;28;20028;-71
2022/09/02 09:50:45;;;;;;;8.50;2.50;;;22.60;45.10;;;;;;5074275;28;20051;-71
2022/09/02 09:53:19;;;;;;;6.00;2.47;;;22.80;45.20;;;;;;5074166;28;20036;-71
2022/09/02 09:56:00;;;;;;;6.72;2.47;;;22.80;44.20;;;;;;5074110;28;20029;-71
2022/09/02 09:58:43;;;;;;;3.78;1.92;;;22.90;44.70;;;;;;5073893;28;20028;-71
2022/09/02 10:01:22;;;;;;;6.65;2.40;;;22.90;45.00;;;;;;5073906;28;20036;-71
2022/09/02 10:03:57;;;;;;;5.20;2.28;;;23.00;44.30;;;;;;5073981;28;20029;-71
2022/09/02 10:06:29;;;;;;;7.22;2.33;;;23.10;44.50;;;;;;5073931;28;20036;-71
2022/09/02 10:09:19;;;;;;;5.70;2.25;;;23.20;44.50;;;;;;5073862;28;20075;-71
2022/09/02 10:12:01;;;;;;;4.80;2.20;;;23.30;44.00;;;;;;5068270;28;20043;-71
2022/09/02 10:14:38;;;;;;;9.90;2.35;;;23.40;44.30;;;;;;5073792;28;20032;-71
2022/09/02 10:17:19;;;;;;;5.47;2.45;;;23.50;44.20;;;;;;5073320;28;20026;-71
2022/09/02 10:19:53;;;;;;;5.75;2.20;;;23.60;44.10;;;;;;5073581;28;20040;-71
2022/09/02 10:22:19;;;;;;;10.05;2.55;;;23.70;44.60;;;;;;5073616;28;20025;-71
2022/09/02 10:24:51;;;;;;;4.85;2.45;;;23.90;44.60;;;;;;5073686;28;20067;-71
2022/09/02 10:27:28;;;;;;;5.43;2.60;;;24.00;44.20;;;;;;5073741;28;20025;-71
2022/09/02 10:30:10;;;;;;;6.88;2.65;;;24.10;43.00;;;;;;5073499;28;20070;-71
2022/09/02 10:32:45;;;;;;;9.65;3.03;;;24.10;42.60;;;;;;5073583;28;20047;-71
2022/09/02 10:35:29;;;;;;;4.22;2.50;;;24.20;42.90;;;;;;5073564;28;20119;-70
2022/09/02 10:38:22;;;;;;;5.15;2.40;;;24.20;41.10;;;;;;5073460;28;20029;-70
2022/09/02 10:41:08;;;;;;;;;;;24.20;40.60;;;;;;5073828;28;20040;-71
2022/09/02 10:44:02;;;;;;;11.10;2.42;;;24.20;40.80;;;;;;5066073;28;19912;-71
2022/09/02 10:46:39;;;;;;;5.32;2.33;;;24.20;41.40;;;;;;5073307;28;20025;-71
2022/09/02 10:49:34;;;;;;;3.50;2.40;;;24.30;41.50;;;;;;5073299;28;20044;-71
2022/09/02 10:52:16;;;;;;;5.03;2.20;;;24.50;39.90;;;;;;5073375;28;20028;-71
2022/09/02 10:55:12;;;;;;;3.03;2.15;;;24.50;40.50;;;;;;5073388;28;20029;-71
2022/09/02 10:57:49;;;;;;;4.25;2.60;;;24.60;41.10;;;;;;5073324;28;20032;-71
2022/09/02 11:00:19;;;;;;;3.25;2.00;;;24.80;41.20;;;;;;5072017;28;20049;-71
2022/09/02 11:03:10;;;;;;;3.33;2.40;;;24.90;40.60;;;;;;5073119;28;20021;-71
2022/09/02 11:05:53;;;;;;;3.22;2.03;;;25.00;39.00;;;;;;5069991;28;20044;-71
2022/09/02 11:08:45;;;;;;;5.68;2.45;;;25.10;39.40;;;;;;5073097;28;20082;-71
2022/09/02 11:11:21;;;;;;;3.87;2.60;;;25.20;38.30;;;;;;5073055;28;20028;-71
2022/09/02 11:14:18;;;;;;;3.28;2.22;;;25.20;37.50;;;;;;5073065;28;20052;-71
2022/09/02 11:17:07;;;;;;;5.35;2.20;;;25.40;38.60;;;;;;5073044;28;20021;-71
2022/09/02 11:19:41;;;;;;;3.55;2.30;;;25.50;38.20;;;;;;5072918;28;20048;-70
2022/09/02 11:22:54;;;;;;;2.20;2.00;;;25.60;38.40;;;;;;5072954;28;20036;-71
2022/09/02 11:25:28;;;;;;;;;;;25.80;35.30;;;;;;5063744;28;20111;-71
2022/09/02 11:28:19;;;;;;;3.78;2.25;;;25.80;35.20;;;;;;5072923;28;19912;-71
2022/09/02 11:30:52;;;;;;;3.17;1.80;;;25.80;34.70;;;;;;5076020;28;20104;-71
2022/09/02 11:33:29;;;;;;;2.15;1.95;;;25.70;35.10;;;;;;5076849;28;20084;-71
2022/09/02 11:35:57;;;;;;;2.95;1.88;;;25.80;33.60;;;;;;5076913;28;20029;-71
2022/09/02 11:38:42;;;;;;;2.55;2.00;;;25.80;34.00;;;;;;5076703;28;20373;-71
2022/09/02 11:41:34;;;;;;;4.47;2.08;;;25.90;34.30;;;;;;5076727;28;20029;-71
2022/09/02 11:44:22;;;;;;;2.30;2.10;;;25.90;33.10;;;;;;5076657;28;20032;-71
2022/09/02 11:47:09;;;;;;;3.17;2.13;;;26.10;32.80;;;;;;5076581;28;20036;-71
2022/09/02 11:49:58;;;;;;;3.05;1.88;;;26.20;34.20;;;;;;5076565;28;20025;-71
2022/09/02 11:52:48;;;;;;;2.58;1.85;;;26.30;32.70;;;;;;5073297;28;20037;-71
2022/09/02 11:55:20;;;;;;;3.42;2.00;;;26.50;32.30;;;;;;5076619;28;20021;-71
2022/09/02 11:57:53;;;;;;;;;;;26.50;31.20;;;;;;5076975;28;20017;-71
2022/09/02 12:00:25;;;;;;;;;;;26.30;31.90;;;;;;5076506;28;19917;-71
2022/09/02 12:03:05;;;;;;;2.60;1.90;;;26.20;32.40;;;;;;5076289;28;19905;-71
2022/09/02 12:05:30;;;;;;;2.08;1.63;;;26.20;32.40;;;;;;5076382;28;20029;-71
2022/09/02 12:07:59;;;;;;;3.88;1.85;;;26.20;31.80;;;;;;5076208;28;20051;-71
2022/09/02 12:10:43;;;;;;;2.83;2.17;;;26.20;31.80;;;;;;5076134;28;20021;-71
2022/09/02 12:13:31;;;;;;;4.30;2.05;;;26.20;30.50;;;;;;5076057;28;20024;-71
2022/09/02 12:16:15;;;;;;;2.25;2.05;;;26.00;30.70;;;;;;5075712;28;20039;-71
2022/09/02 12:19:07;;;;;;;3.50;1.75;;;25.90;31.00;;;;;;5076058;28;20109;-71
2022/09/02 12:21:34;;;;;;;3.58;2.00;;;25.90;31.00;;;;;;5066332;28;20037;-71
2022/09/02 12:23:59;;;;;;;3.65;1.90;;;25.80;31.00;;;;;;5075904;28;20025;-71
2022/09/02 12:26:36;;;;;;;4.03;1.92;;;25.80;31.10;;;;;;5075949;28;20379;-71
2022/09/02 12:29:21;;;;;;;2.03;1.83;;;25.90;31.70;;;;;;5075695;28;20025;-71
2022/09/02 12:31:49;;;;;;;1.95;1.75;;;26.10;30.10;;;;;;5075711;28;20492;-71
2022/09/02 12:34:23;;;;;;;3.70;2.10;;;26.30;30.80;;;;;;5075654;28;20017;-71
2022/09/02 12:36:54;;;;;;;3.83;1.80;;;26.40;30.30;;;;;;5075587;28;20088;-71
2022/09/02 12:39:22;;;;;;;8.88;3.72;;;26.30;30.90;;;;;;5075748;28;20021;-71
2022/09/02 12:41:59;;;;;;;3.25;2.10;;;26.20;29.90;;;;;;5075017;28;20033;-71
2022/09/02 12:44:25;;;;;;;2.72;1.77;;;26.20;30.00;;;;;;5075448;28;20029;-71
2022/09/02 12:47:05;;;;;;;3.95;2.20;;;26.20;30.40;;;;;;5075395;28;20040;-69
2022/09/02 12:49:47;;;;;;;2.58;2.05;;;26.20;29.60;;;;;;5074396;28;20021;-70
2022/09/02 12:52:41;;;;;;;2.77;1.73;;;26.10;29.80;;;;;;5075417;28;20021;-70
2022/09/02 12:55:27;;;;;;;2.70;1.85;;;26.00;30.10;;;;;;5075340;28;20254;-70
2022/09/02 12:58:05;;;;;;;2.97;1.95;;;26.00;29.90;;;;;;5075148;28;20025;-70
2022/09/02 13:00:54;;;;;;;2.85;2.10;;;26.00;30.10;;;;;;5075000;28;20048;-69
2022/09/02 13:03:51;;;;;;;4.13;1.90;;;26.10;30.50;;;;;;5075168;28;20024;-70
2022/09/02 13:06:38;;;;;;;3.92;1.63;;;26.30;30.50;;;;;;5075135;28;20029;-70
2022/09/02 13:09:31;;;;;;;1.80;1.70;;;26.50;29.90;;;;;;5075028;28;20028;-70
2022/09/02 13:12:18;;;;;;;2.13;1.88;;;26.60;29.50;;;;;;5075025;28;20036;-70